sensor_id;sensor_type;location;lat;lon;timestamp;temperature;humidity
17296;DHT22;8766;51.480;6.872;2023-05-29T00:00:01;18.40;45.80
17296;DHT22;8766;51.480;6.872;2023-05-29T00:02:31;18.40;45.90
17296;DHT22;8766;51.480;6.872;2023-05-29T00:04:58;18.30;45.90
17296;DHT22;8766;51.480;6.872;2023-05-29T00:07:29;18.30;46.00
17296;DHT22;8766;51.480;6.872;2023-05-29T00:09:56;18.20;46.00
17296;DHT22;8766;51.480;6.872;2023-05-29T00:12:23;18.20;46.10
17296;DHT22;8766;51.480;6.872;2023-05-29T00:14:50;18.20;46.10
17296;DHT22;8766;51.480;6.872;2023-05-29T00:17:17;18.20;46.20
17296;DHT22;8766;51.480;6.872;2023-05-29T00:19:46;18.10;46.20
17296;DHT22;8766;51.480;6.872;2023-05-29T00:22:13;18.10;46.20
17296;DHT22;8766;51.480;6.872;2023-05-29T00:24:41;18.10;46.30
17296;DHT22;8766;51.480;6.872;2023-05-29T00:27:09;18.00;46.30
17296;DHT22;8766;51.480;6.872;2023-05-29T00:29:36;18.00;46.40
17296;DHT22;8766;51.480;6.872;2023-05-29T00:32:04;17.90;46.50
17296;DHT22;8766;51.480;6.872;2023-05-29T00:34:31;17.90;46.40
17296;DHT22;8766;51.480;6.872;2023-05-29T00:36:58;17.80;46.40
17296;DHT22;8766;51.480;6.872;2023-05-29T00:39:25;17.90;46.50
17296;DHT22;8766;51.480;6.872;2023-05-29T00:41:54;17.80;46.40
17296;DHT22;8766;51.480;6.872;2023-05-29T00:44:21;17.80;46.50
17296;DHT22;8766;51.480;6.872;2023-05-29T00:46:50;17.80;46.50
17296;DHT22;8766;51.480;6.872;2023-05-29T00:49:19;17.80;46.60
17296;DHT22;8766;51.480;6.872;2023-05-29T00:51:46;17.70;46.50
17296;DHT22;8766;51.480;6.872;2023-05-29T00:54:20;17.70;46.60
17296;DHT22;8766;51.480;6.872;2023-05-29T00:56:48;17.60;46.70
17296;DHT22;8766;51.480;6.872;2023-05-29T00:59:16;17.60;46.90
17296;DHT22;8766;51.480;6.872;2023-05-29T01:01:44;17.50;46.90
17296;DHT22;8766;51.480;6.872;2023-05-29T01:04:11;17.50;46.90
17296;DHT22;8766;51.480;6.872;2023-05-29T01:06:40;17.50;46.90
17296;DHT22;8766;51.480;6.872;2023-05-29T01:09:07;17.40;47.00
17296;DHT22;8766;51.480;6.872;2023-05-29T01:11:44;17.40;47.10
17296;DHT22;8766;51.480;6.872;2023-05-29T01:14:23;17.30;47.20
17296;DHT22;8766;51.480;6.872;2023-05-29T01:16:59;17.30;47.30
17296;DHT22;8766;51.480;6.872;2023-05-29T01:19:43;17.20;47.30
17296;DHT22;8766;51.480;6.872;2023-05-29T01:22:18;17.20;47.40
17296;DHT22;8766;51.480;6.872;2023-05-29T01:24:58;17.10;47.40
17296;DHT22;8766;51.480;6.872;2023-05-29T01:27:28;17.10;47.40
17296;DHT22;8766;51.480;6.872;2023-05-29T01:29:57;17.00;47.50
17296;DHT22;8766;51.480;6.872;2023-05-29T01:32:25;17.00;47.60
17296;DHT22;8766;51.480;6.872;2023-05-29T01:34:53;16.90;47.60
17296;DHT22;8766;51.480;6.872;2023-05-29T01:37:19;16.80;47.70
17296;DHT22;8766;51.480;6.872;2023-05-29T01:39:46;16.80;47.80
17296;DHT22;8766;51.480;6.872;2023-05-29T01:42:13;16.70;47.80
17296;DHT22;8766;51.480;6.872;2023-05-29T01:44:42;16.70;47.90
17296;DHT22;8766;51.480;6.872;2023-05-29T01:47:10;16.70;48.00
17296;DHT22;8766;51.480;6.872;2023-05-29T01:49:37;16.60;48.00
17296;DHT22;8766;51.480;6.872;2023-05-29T01:52:06;16.60;48.10
17296;DHT22;8766;51.480;6.872;2023-05-29T01:54:33;16.50;48.10
17296;DHT22;8766;51.480;6.872;2023-05-29T01:57:00;16.40;48.20
17296;DHT22;8766;51.480;6.872;2023-05-29T01:59:28;16.40;48.20
17296;DHT22;8766;51.480;6.872;2023-05-29T02:01:57;16.40;48.20
17296;DHT22;8766;51.480;6.872;2023-05-29T02:04:24;16.30;48.30
17296;DHT22;8766;51.480;6.872;2023-05-29T02:06:51;16.30;48.20
17296;DHT22;8766;51.480;6.872;2023-05-29T02:09:19;16.30;48.30
17296;DHT22;8766;51.480;6.872;2023-05-29T02:11:48;16.20;48.30
17296;DHT22;8766;51.480;6.872;2023-05-29T02:14:15;16.20;48.30
17296;DHT22;8766;51.480;6.872;2023-05-29T02:16:42;16.20;48.30
17296;DHT22;8766;51.480;6.872;2023-05-29T02:19:11;16.20;48.30
17296;DHT22;8766;51.480;6.872;2023-05-29T02:21:39;16.20;48.40
17296;DHT22;8766;51.480;6.872;2023-05-29T02:24:06;16.10;48.40
17296;DHT22;8766;51.480;6.872;2023-05-29T02:26:34;16.10;48.50
17296;DHT22;8766;51.480;6.872;2023-05-29T02:29:02;16.00;48.60
17296;DHT22;8766;51.480;6.872;2023-05-29T02:31:31;16.00;48.50
17296;DHT22;8766;51.480;6.872;2023-05-29T02:33:58;16.00;48.60
17296;DHT22;8766;51.480;6.872;2023-05-29T02:36:26;16.00;48.60
17296;DHT22;8766;51.480;6.872;2023-05-29T02:38:53;15.90;48.60
17296;DHT22;8766;51.480;6.872;2023-05-29T02:41:20;15.90;48.70
17296;DHT22;8766;51.480;6.872;2023-05-29T02:43:47;15.80;48.70
17296;DHT22;8766;51.480;6.872;2023-05-29T02:46:14;15.80;48.80
17296;DHT22;8766;51.480;6.872;2023-05-29T02:48:41;15.70;48.80
17296;DHT22;8766;51.480;6.872;2023-05-29T02:51:08;15.70;48.90
17296;DHT22;8766;51.480;6.872;2023-05-29T02:53:36;15.70;49.40
17296;DHT22;8766;51.480;6.872;2023-05-29T02:56:03;15.60;48.90
17296;DHT22;8766;51.480;6.872;2023-05-29T02:58:30;15.60;48.90
17296;DHT22;8766;51.480;6.872;2023-05-29T03:00:58;15.60;48.90
17296;DHT22;8766;51.480;6.872;2023-05-29T03:03:25;15.60;48.90
17296;DHT22;8766;51.480;6.872;2023-05-29T03:05:52;15.50;49.00
17296;DHT22;8766;51.480;6.872;2023-05-29T03:08:19;15.50;49.00
17296;DHT22;8766;51.480;6.872;2023-05-29T03:10:47;15.50;49.00
17296;DHT22;8766;51.480;6.872;2023-05-29T03:13:14;15.40;49.10
17296;DHT22;8766;51.480;6.872;2023-05-29T03:15:41;15.40;49.20
17296;DHT22;8766;51.480;6.872;2023-05-29T03:18:08;15.40;49.20
17296;DHT22;8766;51.480;6.872;2023-05-29T03:20:35;15.30;49.20
17296;DHT22;8766;51.480;6.872;2023-05-29T03:23:02;15.30;49.30
17296;DHT22;8766;51.480;6.872;2023-05-29T03:25:29;15.30;49.30
17296;DHT22;8766;51.480;6.872;2023-05-29T03:27:57;15.20;49.30
17296;DHT22;8766;51.480;6.872;2023-05-29T03:30:24;15.20;49.30
17296;DHT22;8766;51.480;6.872;2023-05-29T03:32:51;15.20;49.30
17296;DHT22;8766;51.480;6.872;2023-05-29T03:35:18;15.20;49.30
17296;DHT22;8766;51.480;6.872;2023-05-29T03:37:45;15.20;49.30
17296;DHT22;8766;51.480;6.872;2023-05-29T03:40:12;15.20;49.30
17296;DHT22;8766;51.480;6.872;2023-05-29T03:42:39;15.20;49.30
17296;DHT22;8766;51.480;6.872;2023-05-29T03:45:08;15.20;49.30
17296;DHT22;8766;51.480;6.872;2023-05-29T03:47:35;15.20;49.30
17296;DHT22;8766;51.480;6.872;2023-05-29T03:50:03;15.20;49.20
17296;DHT22;8766;51.480;6.872;2023-05-29T03:52:30;15.20;49.20
17296;DHT22;8766;51.480;6.872;2023-05-29T03:54:57;15.20;49.20
17296;DHT22;8766;51.480;6.872;2023-05-29T03:57:24;15.20;49.10
17296;DHT22;8766;51.480;6.872;2023-05-29T03:59:52;15.20;49.10
17296;DHT22;8766;51.480;6.872;2023-05-29T04:02:20;15.30;49.10
17296;DHT22;8766;51.480;6.872;2023-05-29T04:04:47;15.30;49.00
17296;DHT22;8766;51.480;6.872;2023-05-29T04:07:14;15.30;49.00
17296;DHT22;8766;51.480;6.872;2023-05-29T04:09:43;15.40;48.90
17296;DHT22;8766;51.480;6.872;2023-05-29T04:12:10;15.40;48.80
17296;DHT22;8766;51.480;6.872;2023-05-29T04:14:37;15.40;48.80
17296;DHT22;8766;51.480;6.872;2023-05-29T04:17:04;15.40;48.70
17296;DHT22;8766;51.480;6.872;2023-05-29T04:19:32;15.40;48.60
17296;DHT22;8766;51.480;6.872;2023-05-29T04:21:59;15.40;48.70
17296;DHT22;8766;51.480;6.872;2023-05-29T04:24:26;15.40;48.70
17296;DHT22;8766;51.480;6.872;2023-05-29T04:26:53;15.40;48.70
17296;DHT22;8766;51.480;6.872;2023-05-29T04:29:19;15.50;48.80
17296;DHT22;8766;51.480;6.872;2023-05-29T04:31:46;15.50;48.80
17296;DHT22;8766;51.480;6.872;2023-05-29T04:34:13;15.50;48.80
17296;DHT22;8766;51.480;6.872;2023-05-29T04:36:43;15.40;48.70
17296;DHT22;8766;51.480;6.872;2023-05-29T04:39:10;15.50;48.70
17296;DHT22;8766;51.480;6.872;2023-05-29T04:41:37;15.50;48.50
17296;DHT22;8766;51.480;6.872;2023-05-29T04:44:06;15.60;48.40
17296;DHT22;8766;51.480;6.872;2023-05-29T04:46:33;15.70;48.30
17296;DHT22;8766;51.480;6.872;2023-05-29T04:49:00;15.80;48.10
17296;DHT22;8766;51.480;6.872;2023-05-29T04:51:28;15.90;48.00
17296;DHT22;8766;51.480;6.872;2023-05-29T04:53:56;16.00;47.90
17296;DHT22;8766;51.480;6.872;2023-05-29T04:56:23;16.10;47.80
17296;DHT22;8766;51.480;6.872;2023-05-29T04:58:51;16.30;47.60
17296;DHT22;8766;51.480;6.872;2023-05-29T05:01:18;17.20;46.40
17296;DHT22;8766;51.480;6.872;2023-05-29T05:03:45;18.50;44.20
17296;DHT22;8766;51.480;6.872;2023-05-29T05:06:12;19.80;42.70
17296;DHT22;8766;51.480;6.872;2023-05-29T05:08:42;20.90;40.50
17296;DHT22;8766;51.480;6.872;2023-05-29T05:11:10;21.70;39.20
17296;DHT22;8766;51.480;6.872;2023-05-29T05:13:37;22.40;38.30
17296;DHT22;8766;51.480;6.872;2023-05-29T05:16:04;23.00;37.50
17296;DHT22;8766;51.480;6.872;2023-05-29T05:18:32;23.50;37.00
17296;DHT22;8766;51.480;6.872;2023-05-29T05:20:58;23.90;36.70
17296;DHT22;8766;51.480;6.872;2023-05-29T05:23:25;24.30;36.20
17296;DHT22;8766;51.480;6.872;2023-05-29T05:25:52;24.70;35.70
17296;DHT22;8766;51.480;6.872;2023-05-29T05:28:20;25.00;35.50
17296;DHT22;8766;51.480;6.872;2023-05-29T05:30:47;24.90;35.60
17296;DHT22;8766;51.480;6.872;2023-05-29T05:33:14;25.00;35.70
17296;DHT22;8766;51.480;6.872;2023-05-29T05:35:41;25.30;35.50
17296;DHT22;8766;51.480;6.872;2023-05-29T05:38:08;25.50;35.40
17296;DHT22;8766;51.480;6.872;2023-05-29T05:40:35;25.70;35.20
17296;DHT22;8766;51.480;6.872;2023-05-29T05:43:02;26.00;34.90
17296;DHT22;8766;51.480;6.872;2023-05-29T05:45:30;26.40;34.70
17296;DHT22;8766;51.480;6.872;2023-05-29T05:47:57;26.60;34.40
17296;DHT22;8766;51.480;6.872;2023-05-29T05:50:24;26.90;34.20
17296;DHT22;8766;51.480;6.872;2023-05-29T05:52:51;27.20;34.00
17296;DHT22;8766;51.480;6.872;2023-05-29T05:55:18;27.70;33.60
17296;DHT22;8766;51.480;6.872;2023-05-29T05:57:45;28.20;33.20
17296;DHT22;8766;51.480;6.872;2023-05-29T06:00:13;28.50;32.90
17296;DHT22;8766;51.480;6.872;2023-05-29T06:02:41;28.60;32.90
17296;DHT22;8766;51.480;6.872;2023-05-29T06:05:09;28.60;32.90
17296;DHT22;8766;51.480;6.872;2023-05-29T06:07:36;29.00;32.80
17296;DHT22;8766;51.480;6.872;2023-05-29T06:10:04;29.30;32.50
17296;DHT22;8766;51.480;6.872;2023-05-29T06:12:32;29.50;32.30
17296;DHT22;8766;51.480;6.872;2023-05-29T06:15:00;29.60;32.30
17296;DHT22;8766;51.480;6.872;2023-05-29T06:17:26;29.60;32.40
17296;DHT22;8766;51.480;6.872;2023-05-29T06:19:55;29.50;32.70
17296;DHT22;8766;51.480;6.872;2023-05-29T06:22:22;29.40;32.70
17296;DHT22;8766;51.480;6.872;2023-05-29T06:24:49;29.40;33.00
17296;DHT22;8766;51.480;6.872;2023-05-29T06:27:16;29.40;33.00
17296;DHT22;8766;51.480;6.872;2023-05-29T06:29:43;29.60;32.70
17296;DHT22;8766;51.480;6.872;2023-05-29T06:32:10;29.90;32.50
17296;DHT22;8766;51.480;6.872;2023-05-29T06:34:37;30.30;32.20
17296;DHT22;8766;51.480;6.872;2023-05-29T06:37:06;30.80;31.80
17296;DHT22;8766;51.480;6.872;2023-05-29T06:39:34;31.20;31.50
17296;DHT22;8766;51.480;6.872;2023-05-29T06:42:01;31.40;31.20
17296;DHT22;8766;51.480;6.872;2023-05-29T06:44:28;31.60;31.20
17296;DHT22;8766;51.480;6.872;2023-05-29T06:46:55;31.80;31.10
17296;DHT22;8766;51.480;6.872;2023-05-29T06:49:22;31.90;31.00
17296;DHT22;8766;51.480;6.872;2023-05-29T06:51:48;32.10;30.90
17296;DHT22;8766;51.480;6.872;2023-05-29T06:54:17;32.30;30.70
17296;DHT22;8766;51.480;6.872;2023-05-29T06:56:44;32.20;30.90
17296;DHT22;8766;51.480;6.872;2023-05-29T06:59:10;32.20;31.10
17296;DHT22;8766;51.480;6.872;2023-05-29T07:01:37;32.10;31.20
17296;DHT22;8766;51.480;6.872;2023-05-29T07:04:04;32.00;31.40
17296;DHT22;8766;51.480;6.872;2023-05-29T07:06:32;31.80;31.50
17296;DHT22;8766;51.480;6.872;2023-05-29T07:09:01;32.10;31.30
17296;DHT22;8766;51.480;6.872;2023-05-29T07:11:29;32.60;31.00
17296;DHT22;8766;51.480;6.872;2023-05-29T07:13:56;33.00;30.60
17296;DHT22;8766;51.480;6.872;2023-05-29T07:16:23;33.20;30.50
17296;DHT22;8766;51.480;6.872;2023-05-29T07:18:50;33.20;30.50
17296;DHT22;8766;51.480;6.872;2023-05-29T07:21:17;33.30;30.40
17296;DHT22;8766;51.480;6.872;2023-05-29T07:23:45;33.30;30.40
17296;DHT22;8766;51.480;6.872;2023-05-29T07:26:12;33.50;30.40
17296;DHT22;8766;51.480;6.872;2023-05-29T07:28:41;33.50;30.40
17296;DHT22;8766;51.480;6.872;2023-05-29T07:31:07;33.60;30.40
17296;DHT22;8766;51.480;6.872;2023-05-29T07:33:35;33.80;30.30
17296;DHT22;8766;51.480;6.872;2023-05-29T07:36:02;34.00;30.10
17296;DHT22;8766;51.480;6.872;2023-05-29T07:38:28;34.30;30.00
17296;DHT22;8766;51.480;6.872;2023-05-29T07:40:55;34.40;30.00
17296;DHT22;8766;51.480;6.872;2023-05-29T07:43:23;34.40;30.00
17296;DHT22;8766;51.480;6.872;2023-05-29T07:45:51;34.40;30.00
17296;DHT22;8766;51.480;6.872;2023-05-29T07:48:18;34.50;30.00
17296;DHT22;8766;51.480;6.872;2023-05-29T07:50:45;34.60;30.00
17296;DHT22;8766;51.480;6.872;2023-05-29T07:53:12;34.60;30.00
17296;DHT22;8766;51.480;6.872;2023-05-29T07:55:39;34.30;30.10
17296;DHT22;8766;51.480;6.872;2023-05-29T07:58:06;34.20;30.30
17296;DHT22;8766;51.480;6.872;2023-05-29T08:00:35;34.20;30.30
17296;DHT22;8766;51.480;6.872;2023-05-29T08:03:03;34.30;30.30
17296;DHT22;8766;51.480;6.872;2023-05-29T08:05:31;34.20;30.40
17296;DHT22;8766;51.480;6.872;2023-05-29T08:07:58;34.10;30.50
17296;DHT22;8766;51.480;6.872;2023-05-29T08:10:25;34.00;30.60
17296;DHT22;8766;51.480;6.872;2023-05-29T08:12:52;34.10;31.20
17296;DHT22;8766;51.480;6.872;2023-05-29T08:15:19;34.10;30.60
17296;DHT22;8766;51.480;6.872;2023-05-29T08:17:48;34.00;30.60
17296;DHT22;8766;51.480;6.872;2023-05-29T08:20:16;34.10;30.50
17296;DHT22;8766;51.480;6.872;2023-05-29T08:22:44;34.10;30.40
17296;DHT22;8766;51.480;6.872;2023-05-29T08:25:11;33.80;30.50
17296;DHT22;8766;51.480;6.872;2023-05-29T08:27:38;33.70;30.50
17296;DHT22;8766;51.480;6.872;2023-05-29T08:30:05;33.60;30.40
17296;DHT22;8766;51.480;6.872;2023-05-29T08:32:32;33.60;30.40
17296;DHT22;8766;51.480;6.872;2023-05-29T08:34:59;33.60;30.20
17296;DHT22;8766;51.480;6.872;2023-05-29T08:37:28;33.50;30.20
17296;DHT22;8766;51.480;6.872;2023-05-29T08:39:55;33.20;30.30
17296;DHT22;8766;51.480;6.872;2023-05-29T08:42:26;32.90;30.60
17296;DHT22;8766;51.480;6.872;2023-05-29T08:44:56;32.60;30.70
17296;DHT22;8766;51.480;6.872;2023-05-29T08:47:26;32.40;30.90
17296;DHT22;8766;51.480;6.872;2023-05-29T08:49:54;32.00;31.00
17296;DHT22;8766;51.480;6.872;2023-05-29T08:52:23;31.70;31.30
17296;DHT22;8766;51.480;6.872;2023-05-29T08:54:52;31.10;31.70
17296;DHT22;8766;51.480;6.872;2023-05-29T08:57:19;30.70;32.40
17296;DHT22;8766;51.480;6.872;2023-05-29T08:59:47;30.20;33.00
17296;DHT22;8766;51.480;6.872;2023-05-29T09:02:17;29.60;33.60
17296;DHT22;8766;51.480;6.872;2023-05-29T09:04:45;29.00;34.40
17296;DHT22;8766;51.480;6.872;2023-05-29T09:07:14;28.40;35.00
17296;DHT22;8766;51.480;6.872;2023-05-29T09:09:41;28.10;35.30
17296;DHT22;8766;51.480;6.872;2023-05-29T09:12:09;27.90;35.60
17296;DHT22;8766;51.480;6.872;2023-05-29T09:14:38;27.50;35.90
17296;DHT22;8766;51.480;6.872;2023-05-29T09:17:07;27.20;36.20
17296;DHT22;8766;51.480;6.872;2023-05-29T09:19:35;27.00;36.60
17296;DHT22;8766;51.480;6.872;2023-05-29T09:22:05;26.70;36.70
17296;DHT22;8766;51.480;6.872;2023-05-29T09:24:34;26.50;36.90
17296;DHT22;8766;51.480;6.872;2023-05-29T09:27:02;26.40;37.10
17296;DHT22;8766;51.480;6.872;2023-05-29T09:29:32;26.30;37.10
17296;DHT22;8766;51.480;6.872;2023-05-29T09:31:59;26.30;37.10
17296;DHT22;8766;51.480;6.872;2023-05-29T09:34:31;26.10;37.20
17296;DHT22;8766;51.480;6.872;2023-05-29T09:37:01;25.90;37.40
17296;DHT22;8766;51.480;6.872;2023-05-29T09:39:34;25.80;37.50
17296;DHT22;8766;51.480;6.872;2023-05-29T09:42:01;25.80;37.50
17296;DHT22;8766;51.480;6.872;2023-05-29T09:44:28;25.70;37.60
17296;DHT22;8766;51.480;6.872;2023-05-29T09:46:59;25.50;37.70
17296;DHT22;8766;51.480;6.872;2023-05-29T09:49:26;25.50;37.90
17296;DHT22;8766;51.480;6.872;2023-05-29T09:51:54;25.40;37.80
17296;DHT22;8766;51.480;6.872;2023-05-29T09:54:21;25.40;37.90
17296;DHT22;8766;51.480;6.872;2023-05-29T09:56:48;25.30;37.80
17296;DHT22;8766;51.480;6.872;2023-05-29T09:59:16;25.40;37.80
17296;DHT22;8766;51.480;6.872;2023-05-29T10:01:44;25.40;37.80
17296;DHT22;8766;51.480;6.872;2023-05-29T10:04:12;25.30;37.70
17296;DHT22;8766;51.480;6.872;2023-05-29T10:06:44;25.30;37.70
17296;DHT22;8766;51.480;6.872;2023-05-29T10:09:12;25.30;37.80
17296;DHT22;8766;51.480;6.872;2023-05-29T10:11:42;25.20;37.80
17296;DHT22;8766;51.480;6.872;2023-05-29T10:14:14;25.20;37.90
17296;DHT22;8766;51.480;6.872;2023-05-29T10:16:43;25.20;37.90
17296;DHT22;8766;51.480;6.872;2023-05-29T10:19:18;25.20;37.70
17296;DHT22;8766;51.480;6.872;2023-05-29T10:21:48;25.40;37.60
17296;DHT22;8766;51.480;6.872;2023-05-29T10:24:16;25.50;37.50
17296;DHT22;8766;51.480;6.872;2023-05-29T10:26:47;25.50;37.40
17296;DHT22;8766;51.480;6.872;2023-05-29T10:29:18;25.40;37.40
17296;DHT22;8766;51.480;6.872;2023-05-29T10:31:59;25.40;37.50
17296;DHT22;8766;51.480;6.872;2023-05-29T10:34:44;25.30;37.60
17296;DHT22;8766;51.480;6.872;2023-05-29T10:37:21;25.20;37.70
17296;DHT22;8766;51.480;6.872;2023-05-29T10:39:51;25.20;37.80
17296;DHT22;8766;51.480;6.872;2023-05-29T10:42:42;25.10;37.80
17296;DHT22;8766;51.480;6.872;2023-05-29T10:45:10;25.10;37.80
17296;DHT22;8766;51.480;6.872;2023-05-29T10:47:38;25.10;37.90
17296;DHT22;8766;51.480;6.872;2023-05-29T10:50:06;25.10;37.90
17296;DHT22;8766;51.480;6.872;2023-05-29T10:52:33;25.10;37.90
17296;DHT22;8766;51.480;6.872;2023-05-29T10:55:01;25.10;37.80
17296;DHT22;8766;51.480;6.872;2023-05-29T10:57:30;25.20;37.80
17296;DHT22;8766;51.480;6.872;2023-05-29T11:00:06;25.20;37.60
17296;DHT22;8766;51.480;6.872;2023-05-29T11:02:39;25.30;37.60
17296;DHT22;8766;51.480;6.872;2023-05-29T11:05:23;25.30;38.00
17296;DHT22;8766;51.480;6.872;2023-05-29T11:07:52;25.30;37.40
17296;DHT22;8766;51.480;6.872;2023-05-29T11:10:41;25.20;37.50
17296;DHT22;8766;51.480;6.872;2023-05-29T11:13:08;25.20;37.60
17296;DHT22;8766;51.480;6.872;2023-05-29T11:15:36;25.20;37.60
17296;DHT22;8766;51.480;6.872;2023-05-29T11:18:07;25.20;37.60
17296;DHT22;8766;51.480;6.872;2023-05-29T11:20:43;25.10;37.70
17296;DHT22;8766;51.480;6.872;2023-05-29T11:23:16;25.10;37.70
17296;DHT22;8766;51.480;6.872;2023-05-29T11:25:45;25.20;37.70
17296;DHT22;8766;51.480;6.872;2023-05-29T11:28:12;25.20;37.70
17296;DHT22;8766;51.480;6.872;2023-05-29T11:30:43;25.20;37.60
17296;DHT22;8766;51.480;6.872;2023-05-29T11:33:19;25.20;37.60
17296;DHT22;8766;51.480;6.872;2023-05-29T11:35:52;25.20;37.60
17296;DHT22;8766;51.480;6.872;2023-05-29T11:38:21;25.20;37.60
17296;DHT22;8766;51.480;6.872;2023-05-29T11:40:48;25.20;37.60
17296;DHT22;8766;51.480;6.872;2023-05-29T11:43:15;25.20;37.60
17296;DHT22;8766;51.480;6.872;2023-05-29T11:45:42;25.20;37.60
17296;DHT22;8766;51.480;6.872;2023-05-29T11:48:09;25.20;37.60
17296;DHT22;8766;51.480;6.872;2023-05-29T11:50:36;25.20;37.60
17296;DHT22;8766;51.480;6.872;2023-05-29T11:53:06;25.20;37.70
17296;DHT22;8766;51.480;6.872;2023-05-29T11:55:33;25.10;37.60
17296;DHT22;8766;51.480;6.872;2023-05-29T11:58:02;25.10;37.70
17296;DHT22;8766;51.480;6.872;2023-05-29T12:00:31;25.10;37.80
17296;DHT22;8766;51.480;6.872;2023-05-29T12:02:59;25.20;37.70
17296;DHT22;8766;51.480;6.872;2023-05-29T12:05:29;25.20;37.60
17296;DHT22;8766;51.480;6.872;2023-05-29T12:07:56;25.20;37.60
17296;DHT22;8766;51.480;6.872;2023-05-29T12:10:28;25.20;37.70
17296;DHT22;8766;51.480;6.872;2023-05-29T12:12:56;25.10;37.80
17296;DHT22;8766;51.480;6.872;2023-05-29T12:15:23;25.00;37.80
17296;DHT22;8766;51.480;6.872;2023-05-29T12:17:51;24.90;37.90
17296;DHT22;8766;51.480;6.872;2023-05-29T12:20:18;24.90;38.00
17296;DHT22;8766;51.480;6.872;2023-05-29T12:22:46;24.90;38.10
17296;DHT22;8766;51.480;6.872;2023-05-29T12:25:14;24.70;38.10
17296;DHT22;8766;51.480;6.872;2023-05-29T12:27:44;24.60;38.30
17296;DHT22;8766;51.480;6.872;2023-05-29T12:30:13;24.50;38.40
17296;DHT22;8766;51.480;6.872;2023-05-29T12:32:42;24.50;38.50
17296;DHT22;8766;51.480;6.872;2023-05-29T12:35:13;24.50;38.40
17296;DHT22;8766;51.480;6.872;2023-05-29T12:37:47;24.50;38.40
17296;DHT22;8766;51.480;6.872;2023-05-29T12:40:15;24.50;38.40
17296;DHT22;8766;51.480;6.872;2023-05-29T12:42:44;24.60;38.40
17296;DHT22;8766;51.480;6.872;2023-05-29T12:45:11;24.50;38.40
17296;DHT22;8766;51.480;6.872;2023-05-29T12:47:44;24.60;38.30
17296;DHT22;8766;51.480;6.872;2023-05-29T12:50:23;24.70;38.30
17296;DHT22;8766;51.480;6.872;2023-05-29T12:52:54;24.70;38.40
17296;DHT22;8766;51.480;6.872;2023-05-29T12:55:21;24.70;38.20
17296;DHT22;8766;51.480;6.872;2023-05-29T12:57:50;24.70;38.20
17296;DHT22;8766;51.480;6.872;2023-05-29T13:00:17;24.70;38.20
17296;DHT22;8766;51.480;6.872;2023-05-29T13:02:45;24.70;38.10
17296;DHT22;8766;51.480;6.872;2023-05-29T13:05:12;24.70;38.10
17296;DHT22;8766;51.480;6.872;2023-05-29T13:07:39;24.80;38.00
17296;DHT22;8766;51.480;6.872;2023-05-29T13:10:07;24.80;38.00
17296;DHT22;8766;51.480;6.872;2023-05-29T13:12:34;24.80;38.00
17296;DHT22;8766;51.480;6.872;2023-05-29T13:15:03;24.80;38.00
17296;DHT22;8766;51.480;6.872;2023-05-29T13:17:30;24.80;38.00
17296;DHT22;8766;51.480;6.872;2023-05-29T13:19:56;24.80;38.00
17296;DHT22;8766;51.480;6.872;2023-05-29T13:22:23;24.90;38.00
17296;DHT22;8766;51.480;6.872;2023-05-29T13:24:56;24.90;38.00
17296;DHT22;8766;51.480;6.872;2023-05-29T13:27:23;24.80;38.00
17296;DHT22;8766;51.480;6.872;2023-05-29T13:29:50;24.90;38.00
17296;DHT22;8766;51.480;6.872;2023-05-29T13:32:19;24.90;38.00
17296;DHT22;8766;51.480;6.872;2023-05-29T13:34:46;24.80;38.00
17296;DHT22;8766;51.480;6.872;2023-05-29T13:37:13;24.80;38.10
17296;DHT22;8766;51.480;6.872;2023-05-29T13:39:40;24.70;38.10
17296;DHT22;8766;51.480;6.872;2023-05-29T13:42:08;24.70;38.20
17296;DHT22;8766;51.480;6.872;2023-05-29T13:44:36;24.70;38.20
17296;DHT22;8766;51.480;6.872;2023-05-29T13:47:04;24.70;38.20
17296;DHT22;8766;51.480;6.872;2023-05-29T13:49:32;24.70;38.20
17296;DHT22;8766;51.480;6.872;2023-05-29T13:51:59;24.70;38.20
17296;DHT22;8766;51.480;6.872;2023-05-29T13:54:26;24.70;38.20
17296;DHT22;8766;51.480;6.872;2023-05-29T13:56:55;24.70;38.10
17296;DHT22;8766;51.480;6.872;2023-05-29T13:59:22;24.70;38.20
17296;DHT22;8766;51.480;6.872;2023-05-29T14:01:49;24.70;38.20
17296;DHT22;8766;51.480;6.872;2023-05-29T14:04:16;24.70;38.20
17296;DHT22;8766;51.480;6.872;2023-05-29T14:06:44;24.70;38.10
17296;DHT22;8766;51.480;6.872;2023-05-29T14:09:11;24.70;38.20
17296;DHT22;8766;51.480;6.872;2023-05-29T14:11:38;24.70;38.10
17296;DHT22;8766;51.480;6.872;2023-05-29T14:14:06;24.80;38.00
17296;DHT22;8766;51.480;6.872;2023-05-29T14:16:33;24.80;37.90
17296;DHT22;8766;51.480;6.872;2023-05-29T14:19:00;24.80;37.90
17296;DHT22;8766;51.480;6.872;2023-05-29T14:21:27;24.70;38.00
17296;DHT22;8766;51.480;6.872;2023-05-29T14:23:55;24.70;38.10
17296;DHT22;8766;51.480;6.872;2023-05-29T14:26:22;24.60;38.20
17296;DHT22;8766;51.480;6.872;2023-05-29T14:28:49;24.60;38.30
17296;DHT22;8766;51.480;6.872;2023-05-29T14:31:15;24.60;38.30
17296;DHT22;8766;51.480;6.872;2023-05-29T14:33:42;24.60;38.30
17296;DHT22;8766;51.480;6.872;2023-05-29T14:36:09;24.60;38.30
17296;DHT22;8766;51.480;6.872;2023-05-29T14:38:36;24.50;38.40
17296;DHT22;8766;51.480;6.872;2023-05-29T14:41:05;24.40;38.50
17296;DHT22;8766;51.480;6.872;2023-05-29T14:43:32;24.40;38.60
17296;DHT22;8766;51.480;6.872;2023-05-29T14:45:59;24.40;38.60
17296;DHT22;8766;51.480;6.872;2023-05-29T14:48:25;24.40;38.60
17296;DHT22;8766;51.480;6.872;2023-05-29T14:50:52;24.30;38.60
17296;DHT22;8766;51.480;6.872;2023-05-29T14:53:19;24.20;38.70
17296;DHT22;8766;51.480;6.872;2023-05-29T14:55:48;24.20;38.80
17296;DHT22;8766;51.480;6.872;2023-05-29T14:58:16;24.20;38.70
17296;DHT22;8766;51.480;6.872;2023-05-29T15:00:43;24.20;38.60
17296;DHT22;8766;51.480;6.872;2023-05-29T15:03:10;24.20;38.60
17296;DHT22;8766;51.480;6.872;2023-05-29T15:05:37;24.30;38.50
17296;DHT22;8766;51.480;6.872;2023-05-29T15:08:04;24.30;38.50
17296;DHT22;8766;51.480;6.872;2023-05-29T15:10:31;24.30;38.50
17296;DHT22;8766;51.480;6.872;2023-05-29T15:12:58;24.30;38.40
17296;DHT22;8766;51.480;6.872;2023-05-29T15:15:27;24.30;38.30
17296;DHT22;8766;51.480;6.872;2023-05-29T15:17:54;24.30;38.30
17296;DHT22;8766;51.480;6.872;2023-05-29T15:20:22;24.40;38.30
17296;DHT22;8766;51.480;6.872;2023-05-29T15:22:49;24.40;38.20
17296;DHT22;8766;51.480;6.872;2023-05-29T15:25:16;24.30;38.20
17296;DHT22;8766;51.480;6.872;2023-05-29T15:27:43;24.30;38.30
17296;DHT22;8766;51.480;6.872;2023-05-29T15:30:11;24.30;38.90
17296;DHT22;8766;51.480;6.872;2023-05-29T15:32:41;24.30;38.30
17296;DHT22;8766;51.480;6.872;2023-05-29T15:35:09;24.30;38.40
17296;DHT22;8766;51.480;6.872;2023-05-29T15:37:37;24.20;38.30
17296;DHT22;8766;51.480;6.872;2023-05-29T15:40:05;24.30;38.40
17296;DHT22;8766;51.480;6.872;2023-05-29T15:42:32;24.20;38.20
17296;DHT22;8766;51.480;6.872;2023-05-29T15:44:59;24.20;38.30
17296;DHT22;8766;51.480;6.872;2023-05-29T15:47:30;24.20;38.30
17296;DHT22;8766;51.480;6.872;2023-05-29T15:49:58;24.10;38.30